Time;durP1;ratioP1;P1;durP2;ratioP2;P2;SDS_P1;SDS_P2;PMS_P1;PMS_P2;Temp;Humidity;BMP_temperature;BMP_pressure;BME280_temperature;BME280_humidity;BME280_pressure;Samples;Min_cycle;Max_cycle;Signal;HPM_P1;HPM_P2
2023/12/17 00:01:28;;;;;;;13.60;1.58;;;11.40;44.40;;;;;;5051665;28;20272;-49
2023/12/17 00:03:53;;;;;;;1.10;1.00;;;11.30;44.60;;;;;;5051761;28;20212;-53
2023/12/17 00:06:19;;;;;;;1.08;0.50;;;11.40;44.40;;;;;;5051830;28;20419;-55
2023/12/17 00:08:46;;;;;;;3.43;2.13;;;11.40;44.10;;;;;;5053624;28;20196;-54
2023/12/17 00:11:11;;;;;;;2.22;1.33;;;11.40;44.10;;;;;;5055827;28;20403;-51
2023/12/17 00:13:37;;;;;;;2.13;1.93;;;11.30;44.50;;;;;;5055863;28;20315;-54
2023/12/17 00:16:04;;;;;;;7.93;1.27;;;11.30;44.60;;;;;;5055661;28;20411;-55
2023/12/17 00:18:30;;;;;;;17.70;1.80;;;11.40;44.40;;;;;;5055474;28;20519;-50
2023/12/17 00:20:56;;;;;;;1.67;1.37;;;11.50;44.30;;;;;;5055566;28;20300;-57
2023/12/17 00:23:21;;;;;;;1.00;0.60;;;11.40;44.00;;;;;;5055617;28;20179;-52
2023/12/17 00:25:47;;;;;;;1.10;0.80;;;11.40;44.10;;;;;;5055596;28;20485;-56
2023/12/17 00:28:13;;;;;;;1.87;1.07;;;11.50;43.80;;;;;;5055455;28;20428;-51
2023/12/17 00:30:39;;;;;;;5.93;1.10;;;11.50;44.00;;;;;;5055366;28;20482;-57
2023/12/17 00:33:05;;;;;;;3.00;1.40;;;11.50;43.90;;;;;;5055409;28;20184;-52
2023/12/17 00:35:31;;;;;;;2.83;0.87;;;11.60;43.60;;;;;;5055444;28;20403;-50
2023/12/17 00:37:57;;;;;;;3.17;1.10;;;11.60;43.40;;;;;;5055055;28;20528;-58
2023/12/17 00:40:22;;;;;;;1.00;0.70;;;11.50;43.40;;;;;;5055276;28;20483;-52
2023/12/17 00:42:48;;;;;;;1.77;1.57;;;11.50;43.30;;;;;;5055277;28;20443;-50
2023/12/17 00:45:14;;;;;;;3.60;1.27;;;11.30;43.90;;;;;;5055083;28;20439;-55
2023/12/17 00:47:40;;;;;;;1.40;0.60;;;11.30;43.90;;;;;;5055016;28;20199;-56
2023/12/17 00:50:06;;;;;;;1.00;0.53;;;11.40;43.80;;;;;;5055099;28;20411;-50
2023/12/17 00:52:33;;;;;;;1.55;1.00;;;11.40;43.50;;;;;;5055004;28;20933;-57
2023/12/17 00:54:59;;;;;;;1.63;1.00;;;11.40;43.60;;;;;;5055110;28;20247;-51
2023/12/17 00:57:25;;;;;;;2.75;1.35;;;11.40;43.50;;;;;;5054935;28;20180;-51
2023/12/17 00:59:51;;;;;;;2.10;1.20;;;11.40;43.60;;;;;;5054732;28;20201;-58
2023/12/17 01:02:17;;;;;;;3.65;1.00;;;11.40;43.20;;;;;;5054913;28;20192;-49
2023/12/17 01:04:43;;;;;;;2.30;1.23;;;11.30;43.70;;;;;;5055041;28;20175;-53
2023/12/17 01:07:09;;;;;;;1.27;0.97;;;11.10;44.10;;;;;;5054703;28;20783;-55
2023/12/17 01:09:35;;;;;;;1.60;1.50;;;11.10;44.20;;;;;;5054842;28;20489;-51
2023/12/17 01:12:03;;;;;;;1.00;0.67;;;11.10;44.20;;;;;;5054790;28;20925;-50
2023/12/17 01:14:34;;;;;;;1.88;1.73;;;11.10;43.90;;;;;;5054584;28;20835;-55
2023/12/17 01:17:04;;;;;;;2.97;1.08;;;11.30;43.70;;;;;;5054472;28;20209;-51
2023/12/17 01:19:36;;;;;;;1.15;0.90;;;11.30;43.40;;;;;;5053422;28;20586;-53
2023/12/17 01:22:02;;;;;;;1.60;1.25;;;11.30;43.30;;;;;;5054716;28;20195;-54
2023/12/17 01:24:28;;;;;;;2.17;1.48;;;11.40;43.20;;;;;;5054539;28;20176;-54
2023/12/17 01:26:54;;;;;;;2.10;0.90;;;11.30;43.00;;;;;;5054257;28;20574;-51
2023/12/17 01:29:20;;;;;;;1.60;1.50;;;11.40;42.80;;;;;;5054403;28;21020;-55
2023/12/17 01:31:46;;;;;;;1.70;1.57;;;11.40;42.70;;;;;;5054287;28;20484;-51
2023/12/17 01:34:11;;;;;;;1.40;1.13;;;11.40;42.60;;;;;;5054470;28;20408;-51
2023/12/17 01:36:37;;;;;;;1.90;1.47;;;11.50;42.60;;;;;;5054115;28;20426;-56
2023/12/17 01:39:03;;;;;;;1.10;0.80;;;11.50;42.50;;;;;;5054067;28;20443;-56
2023/12/17 01:41:29;;;;;;;8.73;1.77;;;11.40;42.30;;;;;;5053951;28;20201;-50
2023/12/17 01:43:55;;;;;;;7.07;1.88;;;11.40;42.40;;;;;;5054347;28;20457;-57
2023/12/17 01:46:21;;;;;;;4.40;1.77;;;11.30;42.30;;;;;;5054253;28;20165;-55
2023/12/17 01:48:48;;;;;;;1.10;0.80;;;11.30;42.50;;;;;;5053802;28;20655;-50
2023/12/17 01:51:14;;;;;;;18.70;2.47;;;11.20;42.40;;;;;;5053927;28;20220;-53
2023/12/17 01:53:40;;;;;;;1.02;0.65;;;11.20;42.40;;;;;;5053899;28;20192;-53
2023/12/17 01:56:07;;;;;;;2.80;1.97;;;11.20;42.50;;;;;;5053829;28;20185;-52
2023/12/17 01:58:33;;;;;;;2.60;1.15;;;11.20;42.50;;;;;;5053708;28;20438;-49
2023/12/17 02:00:59;;;;;;;1.27;0.90;;;11.20;42.40;;;;;;5053932;28;20209;-57
2023/12/17 02:03:25;;;;;;;1.40;1.10;;;11.20;42.30;;;;;;5053769;28;20403;-58
2023/12/17 02:05:51;;;;;;;1.53;1.07;;;11.20;42.20;;;;;;5053670;28;20180;-51
2023/12/17 02:08:17;;;;;;;13.98;1.33;;;11.10;42.30;;;;;;5053470;28;20506;-56
2023/12/17 02:10:43;;;;;;;2.45;1.38;;;11.10;42.30;;;;;;5053547;28;20530;-57
2023/12/17 02:13:10;;;;;;;3.93;2.27;;;11.10;42.30;;;;;;5053782;28;20183;-50
2023/12/17 02:15:39;;;;;;;1.90;1.80;;;11.00;42.40;;;;;;5053560;28;20451;-53
2023/12/17 02:18:05;;;;;;;1.35;0.88;;;10.90;42.80;;;;;;5053273;28;20193;-54
2023/12/17 02:20:31;;;;;;;2.17;1.45;;;10.90;42.80;;;;;;5053304;28;20213;-49
2023/12/17 02:23:01;;;;;;;1.70;1.60;;;10.90;42.80;;;;;;5053375;28;20223;-56
2023/12/17 02:25:27;;;;;;;1.60;0.95;;;10.90;42.50;;;;;;5053532;28;20216;-53
2023/12/17 02:27:57;;;;;;;2.28;1.73;;;10.90;42.30;;;;;;5053265;28;20306;-59
2023/12/17 02:30:23;;;;;;;0.95;0.50;;;10.90;42.30;;;;;;5053231;28;20255;-51
2023/12/17 02:32:50;;;;;;;1.25;1.00;;;10.90;42.30;;;;;;5053174;28;20236;-55
2023/12/17 02:35:16;;;;;;;1.88;1.58;;;10.80;42.30;;;;;;5053091;28;20620;-50
2023/12/17 02:37:42;;;;;;;2.00;1.15;;;10.80;42.40;;;;;;5052659;28;20272;-55
2023/12/17 02:40:08;;;;;;;2.50;1.90;;;10.80;42.60;;;;;;5053223;28;20200;-51
2023/12/17 02:42:34;;;;;;;2.10;0.82;;;10.70;42.50;;;;;;5053079;28;20893;-50
2023/12/17 02:45:00;;;;;;;0.90;0.47;;;10.70;42.50;;;;;;5053131;28;20177;-53
2023/12/17 02:47:26;;;;;;;1.60;0.90;;;10.70;42.70;;;;;;5052853;28;20939;-55
2023/12/17 02:49:52;;;;;;;0.90;0.50;;;10.70;42.70;;;;;;5052834;28;20431;-50
2023/12/17 02:52:18;;;;;;;1.40;0.80;;;10.70;42.60;;;;;;5052744;28;20605;-55
2023/12/17 02:54:44;;;;;;;1.20;0.60;;;10.70;42.60;;;;;;5052795;28;20454;-56
2023/12/17 02:57:10;;;;;;;1.10;0.60;;;10.70;42.60;;;;;;5052756;28;20170;-52
2023/12/17 02:59:36;;;;;;;4.00;0.93;;;10.70;42.50;;;;;;5052803;28;20788;-53
2023/12/17 03:02:02;;;;;;;4.80;1.40;;;10.70;42.40;;;;;;5052582;28;20872;-56
2023/12/17 03:04:28;;;;;;;3.00;1.10;;;10.70;42.50;;;;;;5052818;28;20392;-51
2023/12/17 03:06:54;;;;;;;0.90;0.52;;;10.60;42.40;;;;;;5052289;28;20436;-57
2023/12/17 03:09:19;;;;;;;1.93;0.87;;;10.60;42.60;;;;;;5052458;28;20196;-51
2023/12/17 03:11:46;;;;;;;2.60;1.07;;;10.70;42.50;;;;;;5052710;28;20529;-53
2023/12/17 03:14:12;;;;;;;4.50;1.00;;;10.60;42.40;;;;;;5052381;28;20416;-54
2023/12/17 03:16:38;;;;;;;2.00;1.40;;;10.60;42.40;;;;;;5052202;28;20189;-52
2023/12/17 03:19:03;;;;;;;2.45;1.48;;;10.60;42.40;;;;;;5052305;28;20288;-54
2023/12/17 03:21:29;;;;;;;0.90;0.50;;;10.60;42.60;;;;;;5052236;28;20560;-55
2023/12/17 03:23:55;;;;;;;1.27;0.90;;;10.60;42.50;;;;;;5052495;28;20917;-49
2023/12/17 03:26:21;;;;;;;1.30;0.57;;;10.60;42.40;;;;;;5052404;28;21021;-53
2023/12/17 03:28:47;;;;;;;1.33;0.70;;;10.60;42.40;;;;;;5052132;28;20436;-55
2023/12/17 03:31:14;;;;;;;0.80;0.40;;;10.60;42.40;;;;;;5052234;28;20828;-51
2023/12/17 03:33:41;;;;;;;1.10;0.50;;;10.60;42.30;;;;;;5052121;28;20408;-53
2023/12/17 03:36:07;;;;;;;0.95;0.60;;;10.60;41.90;;;;;;5052111;28;20181;-54
2023/12/17 03:38:33;;;;;;;2.10;1.02;;;10.50;42.10;;;;;;5051896;28;20237;-49
2023/12/17 03:40:59;;;;;;;1.57;1.40;;;10.40;42.30;;;;;;5051939;28;20283;-56
2023/12/17 03:43:25;;;;;;;2.50;1.30;;;10.40;42.30;;;;;;5051445;28;20464;-50
2023/12/17 03:45:51;;;;;;;1.50;0.68;;;10.30;42.30;;;;;;5052061;28;20209;-53
2023/12/17 03:48:17;;;;;;;1.00;0.70;;;10.30;42.50;;;;;;5051724;28;20590;-56
2023/12/17 03:50:43;;;;;;;1.30;0.70;;;10.20;43.00;;;;;;5051826;28;20757;-50
2023/12/17 03:53:10;;;;;;;1.43;0.93;;;10.10;42.30;;;;;;5051917;28;20789;-48
2023/12/17 03:55:39;;;;;;;1.13;0.77;;;10.10;42.10;;;;;;5051982;28;20827;-53
2023/12/17 03:58:05;;;;;;;0.80;0.30;;;10.00;42.30;;;;;;5051957;28;20225;-51
2023/12/17 04:00:31;;;;;;;19.33;1.30;;;10.00;42.50;;;;;;5051818;28;20228;-54
2023/12/17 04:02:57;;;;;;;1.73;1.20;;;10.00;42.40;;;;;;5051752;28;20602;-50
2023/12/17 04:05:26;;;;;;;0.80;0.37;;;9.90;42.80;;;;;;5051733;28;20408;-54
2023/12/17 04:07:53;;;;;;;1.60;0.70;;;9.90;42.80;;;;;;5051471;28;20666;-50
2023/12/17 04:10:18;;;;;;;1.10;0.55;;;9.80;42.90;;;;;;5051628;28;20540;-51
2023/12/17 04:12:44;;;;;;;1.13;0.80;;;9.80;42.80;;;;;;5051673;28;20174;-57
2023/12/17 04:15:10;;;;;;;2.23;0.63;;;9.80;42.80;;;;;;5051740;28;20419;-51
2023/12/17 04:17:36;;;;;;;0.90;0.50;;;9.90;42.90;;;;;;5051240;28;20959;-56
2023/12/17 04:20:02;;;;;;;1.30;0.80;;;9.80;42.80;;;;;;5051628;28;20439;-49
2023/12/17 04:22:28;;;;;;;1.60;0.93;;;9.80;42.70;;;;;;5051577;28;20400;-51
2023/12/17 04:24:53;;;;;;;0.93;0.63;;;9.70;42.60;;;;;;5051571;28;20419;-53
2023/12/17 04:27:19;;;;;;;1.10;0.87;;;9.70;42.70;;;;;;5051403;28;20412;-53
2023/12/17 04:29:45;;;;;;;1.50;0.67;;;9.70;42.70;;;;;;5051490;28;20193;-51
2023/12/17 04:32:11;;;;;;;0.80;0.38;;;9.70;42.70;;;;;;5051484;28;20431;-55
2023/12/17 04:34:37;;;;;;;1.08;0.93;;;9.60;42.70;;;;;;5051516;28;20231;-53
2023/12/17 04:37:03;;;;;;;0.90;0.47;;;9.60;42.80;;;;;;5051437;28;20200;-57
2023/12/17 04:39:29;;;;;;;1.00;0.80;;;9.60;42.90;;;;;;5051304;28;20443;-50
2023/12/17 04:41:55;;;;;;;1.00;0.90;;;9.60;43.00;;;;;;5051380;28;20459;-53
2023/12/17 04:44:21;;;;;;;0.93;0.63;;;9.60;43.10;;;;;;5051472;28;20431;-57
2023/12/17 04:46:47;;;;;;;1.00;0.53;;;9.60;43.10;;;;;;5051060;28;20408;-50
2023/12/17 04:49:13;;;;;;;0.88;0.45;;;9.60;43.20;;;;;;5051298;28;20951;-50
2023/12/17 04:51:39;;;;;;;1.10;0.70;;;9.60;43.20;;;;;;5051412;28;20177;-54
2023/12/17 04:54:04;;;;;;;1.33;0.67;;;9.70;43.20;;;;;;5052292;28;20181;-52
2023/12/17 04:56:30;;;;;;;1.13;0.60;;;9.70;43.30;;;;;;5055156;28;20419;-50
2023/12/17 04:58:56;;;;;;;1.10;0.67;;;9.70;43.40;;;;;;5054817;28;20427;-53
2023/12/17 05:01:22;;;;;;;1.05;0.70;;;9.70;43.50;;;;;;5036826;28;20509;-54
2023/12/17 05:03:48;;;;;;;1.13;0.80;;;9.80;43.50;;;;;;5055004;28;20178;-51
2023/12/17 05:06:14;;;;;;;2.50;1.90;;;9.80;43.40;;;;;;5054846;28;20414;-51
2023/12/17 05:08:39;;;;;;;1.13;0.50;;;9.80;43.20;;;;;;5054698;28;20192;-53
2023/12/17 05:11:05;;;;;;;1.10;0.57;;;9.90;43.30;;;;;;5054833;28;20411;-56
2023/12/17 05:13:31;;;;;;;7.28;1.13;;;9.80;43.20;;;;;;5054781;28;20499;-50
2023/12/17 05:15:57;;;;;;;0.93;0.60;;;9.80;43.20;;;;;;5054625;28;20169;-52
2023/12/17 05:18:23;;;;;;;0.90;0.47;;;9.80;43.20;;;;;;5054483;28;20568;-52
2023/12/17 05:20:49;;;;;;;1.07;0.80;;;9.70;43.30;;;;;;5054496;28;20463;-50
2023/12/17 05:23:15;;;;;;;1.10;0.80;;;9.70;43.10;;;;;;5054647;28;20913;-52
2023/12/17 05:25:41;;;;;;;0.90;0.30;;;9.60;43.00;;;;;;5054593;28;20200;-55
2023/12/17 05:28:09;;;;;;;1.43;0.83;;;9.60;43.10;;;;;;5054295;28;20485;-51
2023/12/17 05:30:35;;;;;;;0.90;0.50;;;9.60;43.20;;;;;;5054238;28;20420;-53
2023/12/17 05:33:02;;;;;;;1.00;0.63;;;9.50;43.10;;;;;;5054365;28;20181;-53
2023/12/17 05:35:28;;;;;;;0.90;0.40;;;9.50;43.30;;;;;;5036695;28;20532;-52
2023/12/17 05:37:53;;;;;;;1.02;0.80;;;9.50;43.20;;;;;;5053954;28;20479;-51
2023/12/17 05:40:19;;;;;;;2.07;0.83;;;9.50;43.40;;;;;;5054230;28;20193;-54
2023/12/17 05:42:45;;;;;;;1.10;0.80;;;9.60;43.10;;;;;;5054182;28;20407;-55
2023/12/17 05:45:11;;;;;;;1.10;0.63;;;9.60;43.00;;;;;;5053978;28;20436;-50
2023/12/17 05:47:39;;;;;;;1.50;1.20;;;9.50;42.90;;;;;;5053839;28;20917;-55
2023/12/17 05:50:07;;;;;;;0.85;0.40;;;9.60;43.00;;;;;;5054025;28;20170;-55
2023/12/17 05:52:34;;;;;;;0.80;0.30;;;9.60;42.80;;;;;;5054004;28;20181;-51
2023/12/17 05:55:00;;;;;;;4.43;1.60;;;9.50;42.80;;;;;;5054125;28;20256;-52
2023/12/17 05:57:26;;;;;;;0.90;0.40;;;9.40;42.90;;;;;;5053895;28;20251;-51
2023/12/17 05:59:52;;;;;;;0.97;0.80;;;9.40;43.20;;;;;;5053795;28;20451;-52
2023/12/17 06:02:17;;;;;;;1.37;0.80;;;9.30;43.50;;;;;;5053866;28;20403;-54
2023/12/17 06:04:43;;;;;;;1.30;0.83;;;9.30;43.50;;;;;;5053825;28;20407;-51
2023/12/17 06:07:09;;;;;;;1.25;0.93;;;9.20;43.30;;;;;;5053055;28;20485;-49
2023/12/17 06:09:35;;;;;;;0.90;0.50;;;9.20;43.20;;;;;;5053683;28;20213;-56
2023/12/17 06:12:01;;;;;;;1.07;0.50;;;9.10;42.90;;;;;;5053673;28;20416;-52
2023/12/17 06:14:28;;;;;;;4.32;1.08;;;9.00;42.80;;;;;;5053504;28;20438;-51
2023/12/17 06:16:54;;;;;;;0.88;0.60;;;9.00;43.00;;;;;;5053449;28;20170;-53
2023/12/17 06:19:20;;;;;;;1.25;0.60;;;8.90;43.20;;;;;;5053429;28;20193;-53
2023/12/17 06:21:46;;;;;;;0.80;0.30;;;8.90;43.20;;;;;;5053361;28;20201;-50
2023/12/17 06:24:11;;;;;;;1.50;1.40;;;8.90;43.10;;;;;;5053356;28;20404;-53
2023/12/17 06:26:37;;;;;;;1.37;1.13;;;8.90;42.80;;;;;;5053170;28;20482;-55
2023/12/17 06:29:03;;;;;;;0.90;0.52;;;8.80;42.70;;;;;;5053245;28;20423;-52
2023/12/17 06:31:30;;;;;;;0.80;0.40;;;8.80;42.90;;;;;;5053290;28;20168;-51
2023/12/17 06:33:56;;;;;;;1.45;0.88;;;7.60;42.30;;;;;;5053273;28;20411;-52
2023/12/17 06:36:22;;;;;;;1.13;0.70;;;8.80;43.00;;;;;;5053364;28;20256;-53
2023/12/17 06:38:48;;;;;;;1.15;0.70;;;8.70;43.30;;;;;;5052780;28;20211;-49
2023/12/17 06:41:14;;;;;;;1.67;1.33;;;8.70;43.30;;;;;;5052979;28;20280;-54
2023/12/17 06:43:40;;;;;;;1.67;1.40;;;8.70;43.20;;;;;;5053007;28;20419;-53
2023/12/17 06:46:07;;;;;;;1.20;0.30;;;8.70;43.30;;;;;;5053255;28;20557;-49
2023/12/17 06:48:36;;;;;;;1.02;0.80;;;8.70;43.20;;;;;;5052864;28;20566;-52
2023/12/17 06:51:02;;;;;;;2.60;1.48;;;8.70;43.20;;;;;;5053017;28;20185;-56
2023/12/17 06:53:29;;;;;;;1.60;1.20;;;8.70;43.20;;;;;;5052866;28;20210;-50
2023/12/17 06:55:56;;;;;;;1.10;0.70;;;8.70;43.10;;;;;;5052744;28;20180;-49
2023/12/17 06:58:21;;;;;;;0.88;0.43;;;8.60;43.10;;;;;;5052737;28;20590;-58
2023/12/17 07:00:48;;;;;;;1.43;0.80;;;8.60;43.40;;;;;;5052841;28;20219;-51
2023/12/17 07:03:18;;;;;;;1.65;0.70;;;8.60;43.60;;;;;;5052667;28;20402;-49
2023/12/17 07:05:44;;;;;;;2.45;1.48;;;8.60;43.60;;;;;;5052680;28;20177;-56
2023/12/17 07:08:10;;;;;;;1.45;0.95;;;8.60;43.50;;;;;;5052423;28;20198;-56
2023/12/17 07:10:36;;;;;;;2.63;1.43;;;8.50;43.50;;;;;;5052476;28;20265;-50
2023/12/17 07:13:03;;;;;;;2.07;0.97;;;8.50;43.50;;;;;;5052489;28;20854;-55
2023/12/17 07:15:29;;;;;;;1.00;0.40;;;8.50;43.50;;;;;;5052642;28;20411;-56
2023/12/17 07:17:56;;;;;;;1.40;0.90;;;8.40;43.30;;;;;;5051419;28;20196;-50
2023/12/17 07:20:21;;;;;;;1.10;0.50;;;8.40;43.30;;;;;;5052318;28;20196;-56
2023/12/17 07:22:50;;;;;;;1.53;0.93;;;8.40;43.40;;;;;;5052350;28;20647;-58
2023/12/17 07:25:17;;;;;;;0.88;0.43;;;8.40;43.50;;;;;;5052232;28;20791;-50
2023/12/17 07:27:43;;;;;;;2.58;1.40;;;8.40;43.50;;;;;;5051916;28;20182;-50
2023/12/17 07:30:10;;;;;;;1.03;0.70;;;8.40;43.50;;;;;;5052280;28;20169;-57
2023/12/17 07:32:35;;;;;;;1.33;1.05;;;8.40;43.50;;;;;;5052215;28;20540;-53
2023/12/17 07:35:03;;;;;;;1.17;0.80;;;8.40;43.60;;;;;;5052228;28;20252;-52
2023/12/17 07:37:29;;;;;;;1.10;0.82;;;8.40;43.50;;;;;;5051848;28;20417;-54
2023/12/17 07:39:56;;;;;;;1.20;0.70;;;8.40;43.80;;;;;;5051805;28;20216;-49
2023/12/17 07:42:23;;;;;;;2.65;1.35;;;8.40;43.80;;;;;;5051910;28;20408;-49
2023/12/17 07:44:49;;;;;;;1.58;1.00;;;8.40;44.00;;;;;;5051987;28;20183;-55
2023/12/17 07:47:15;;;;;;;1.67;1.57;;;8.40;43.90;;;;;;5051772;28;20223;-57
2023/12/17 07:49:40;;;;;;;2.80;1.43;;;8.40;43.90;;;;;;5051901;28;20432;-52
2023/12/17 07:52:06;;;;;;;1.30;0.77;;;8.50;44.40;;;;;;5051816;28;20407;-57
2023/12/17 07:54:32;;;;;;;2.35;1.65;;;8.50;44.40;;;;;;5051883;28;20514;-57
2023/12/17 07:56:59;;;;;;;1.00;0.80;;;8.60;44.30;;;;;;5051569;28;20265;-51
2023/12/17 07:59:25;;;;;;;1.45;1.35;;;8.70;44.40;;;;;;5051911;28;20438;-58
2023/12/17 08:01:51;;;;;;;2.65;2.03;;;8.80;44.20;;;;;;5051836;28;20201;-57
2023/12/17 08:04:18;;;;;;;1.52;1.02;;;8.90;44.10;;;;;;5051931;28;20175;-48
2023/12/17 08:06:44;;;;;;;1.75;1.65;;;9.00;43.90;;;;;;5051521;28;20177;-50
2023/12/17 08:09:10;;;;;;;1.35;0.75;;;9.10;44.00;;;;;;5051936;28;20222;-54
2023/12/17 08:11:36;;;;;;;1.10;0.75;;;9.10;44.00;;;;;;5051703;28;20575;-53
2023/12/17 08:14:03;;;;;;;1.27;0.77;;;9.20;44.10;;;;;;5051839;28;20203;-49
2023/12/17 08:16:30;;;;;;;2.83;2.10;;;9.20;44.00;;;;;;5051695;28;20740;-53
2023/12/17 08:18:55;;;;;;;3.30;1.15;;;9.30;44.10;;;;;;5051522;28;20204;-56
2023/12/17 08:21:21;;;;;;;1.87;1.20;;;9.40;43.90;;;;;;5051507;28;20200;-50
2023/12/17 08:23:47;;;;;;;1.33;1.10;;;9.40;43.90;;;;;;5051619;28;20451;-53
2023/12/17 08:26:13;;;;;;;3.78;1.58;;;9.50;44.00;;;;;;5033889;28;20418;-55
2023/12/17 08:28:39;;;;;;;2.73;0.93;;;9.60;44.10;;;;;;5051730;28;20544;-56
2023/12/17 08:31:09;;;;;;;2.90;1.80;;;9.70;44.10;;;;;;5055572;28;20468;-51
2023/12/17 08:33:36;;;;;;;3.40;1.30;;;9.70;44.00;;;;;;5055450;28;20461;-57
2023/12/17 08:36:02;;;;;;;1.30;1.08;;;9.80;44.00;;;;;;5055320;28;20276;-50
2023/12/17 08:38:28;;;;;;;2.20;2.00;;;9.90;44.00;;;;;;5055109;28;20283;-57
2023/12/17 08:40:54;;;;;;;10.67;3.40;;;10.00;43.90;;;;;;5055247;28;20520;-52
2023/12/17 08:43:20;;;;;;;1.80;0.95;;;10.00;43.70;;;;;;5055392;28;20399;-50
2023/12/17 08:45:46;;;;;;;1.13;0.70;;;10.10;43.70;;;;;;5055372;28;20539;-52
2023/12/17 08:48:12;;;;;;;1.33;1.23;;;10.30;43.60;;;;;;5054997;28;20451;-57
2023/12/17 08:50:38;;;;;;;9.60;2.33;;;10.40;43.40;;;;;;5055008;28;20807;-52
2023/12/17 08:53:04;;;;;;;3.10;1.70;;;10.50;43.40;;;;;;5055103;28;20193;-56
2023/12/17 08:55:30;;;;;;;2.97;2.43;;;10.60;43.30;;;;;;5055167;28;20180;-51
2023/12/17 08:57:56;;;;;;;4.07;1.57;;;10.70;43.20;;;;;;5054847;28;20431;-52
2023/12/17 09:00:22;;;;;;;1.83;1.37;;;10.90;42.80;;;;;;5055026;28;20447;-52
2023/12/17 09:02:48;;;;;;;1.20;1.10;;;11.10;42.80;;;;;;5055059;28;20908;-51
2023/12/17 09:05:13;;;;;;;2.33;2.00;;;11.20;42.50;;;;;;5054893;28;20457;-50
2023/12/17 09:07:39;;;;;;;5.73;3.27;;;11.30;42.10;;;;;;5054874;28;20403;-56
2023/12/17 09:10:06;;;;;;;3.80;3.40;;;11.30;41.80;;;;;;5054846;28;21037;-51
2023/12/17 09:12:31;;;;;;;2.33;1.65;;;11.40;42.20;;;;;;5054737;28;20770;-51
2023/12/17 09:14:57;;;;;;;3.33;3.03;;;11.40;42.10;;;;;;5054924;28;20184;-57
2023/12/17 09:17:25;;;;;;;2.63;1.73;;;11.50;42.60;;;;;;5054461;28;20457;-54
2023/12/17 09:19:51;;;;;;;3.30;1.75;;;11.60;42.70;;;;;;5054585;28;20442;-49
2023/12/17 09:22:17;;;;;;;3.15;2.22;;;11.80;42.60;;;;;;5054502;28;20197;-51
2023/12/17 09:24:44;;;;;;;3.40;2.70;;;11.90;42.50;;;;;;5054685;28;20169;-57
2023/12/17 09:27:09;;;;;;;2.65;2.33;;;12.10;42.10;;;;;;5054388;28;20410;-57
2023/12/17 09:29:35;;;;;;;4.70;1.87;;;12.20;41.50;;;;;;5036587;28;20194;-50
2023/12/17 09:32:01;;;;;;;12.17;1.83;;;12.20;40.90;;;;;;5054404;28;20419;-56
2023/12/17 09:34:27;;;;;;;5.90;1.37;;;12.30;41.40;;;;;;5054320;28;20408;-57
2023/12/17 09:36:53;;;;;;;1.80;1.15;;;12.40;41.30;;;;;;5054223;28;20490;-51
2023/12/17 09:39:19;;;;;;;5.90;1.60;;;12.50;41.20;;;;;;5054049;28;20296;-58
2023/12/17 09:41:45;;;;;;;3.40;2.93;;;12.70;40.40;;;;;;5053143;28;20451;-57
2023/12/17 09:44:11;;;;;;;1.53;1.43;;;13.00;39.60;;;;;;5054226;28;20406;-50
2023/12/17 09:46:37;;;;;;;3.90;1.90;;;13.20;39.70;;;;;;5054045;28;20395;-52
2023/12/17 09:49:03;;;;;;;4.50;3.10;;;13.40;39.30;;;;;;5054134;28;20217;-55
2023/12/17 09:51:30;;;;;;;2.47;1.35;;;13.50;39.70;;;;;;5054347;28;20491;-52
2023/12/17 09:53:57;;;;;;;1.50;1.20;;;13.50;39.50;;;;;;5054060;28;20635;-50
2023/12/17 09:56:24;;;;;;;3.85;2.10;;;13.40;39.50;;;;;;5053941;28;20196;-55
2023/12/17 09:58:50;;;;;;;1.70;1.60;;;13.40;40.00;;;;;;5053806;28;20196;-58
2023/12/17 10:01:16;;;;;;;2.50;1.60;;;13.40;39.60;;;;;;5053806;28;20563;-51
2023/12/17 10:03:41;;;;;;;1.90;1.20;;;13.50;39.50;;;;;;5054082;28;20453;-55
2023/12/17 10:06:08;;;;;;;2.23;2.00;;;13.60;39.50;;;;;;5053842;28;20235;-55
2023/12/17 10:08:34;;;;;;;2.10;1.50;;;13.70;39.50;;;;;;5053464;28;20921;-52
2023/12/17 10:11:00;;;;;;;3.95;1.65;;;13.80;39.30;;;;;;5053697;28;20189;-55
2023/12/17 10:13:26;;;;;;;5.93;2.20;;;13.90;39.20;;;;;;5053715;28;20170;-57
2023/12/17 10:15:55;;;;;;;1.30;0.90;;;14.10;39.10;;;;;;5053571;28;20173;-51
2023/12/17 10:18:22;;;;;;;2.05;1.20;;;14.50;39.40;;;;;;5053568;28;20505;-49
2023/12/17 10:20:49;;;;;;;5.75;1.23;;;14.50;38.20;;;;;;5053456;28;20201;-59
2023/12/17 10:23:15;;;;;;;13.40;2.40;;;14.50;37.20;;;;;;5053436;28;20658;-57
2023/12/17 10:25:42;;;;;;;1.88;1.05;;;14.50;38.00;;;;;;5053447;28;20643;-52
2023/12/17 10:28:13;;;;;;;8.40;1.67;;;14.60;38.50;;;;;;5035272;28;20557;-54
2023/12/17 10:30:40;;;;;;;2.30;1.63;;;14.50;36.20;;;;;;5053203;28;20177;-59
2023/12/17 10:33:09;;;;;;;1.83;1.73;;;14.40;37.90;;;;;;5053266;28;20178;-52
2023/12/17 10:35:35;;;;;;;3.30;1.50;;;14.50;37.80;;;;;;5053225;28;20185;-54
2023/12/17 10:38:05;;;;;;;5.63;1.50;;;14.60;38.10;;;;;;5035370;28;20209;-57
2023/12/17 10:40:41;;;;;;;4.20;1.38;;;14.80;37.20;;;;;;5053055;28;20546;-50
2023/12/17 10:43:08;;;;;;;2.13;1.40;;;15.10;38.00;;;;;;5053031;28;20184;-53
2023/12/17 10:45:35;;;;;;;2.58;1.67;;;15.50;36.90;;;;;;5053048;28;20173;-57
2023/12/17 10:48:02;;;;;;;1.30;0.90;;;16.00;36.00;;;;;;5052716;28;20193;-50
2023/12/17 10:50:28;;;;;;;3.63;1.58;;;16.10;35.30;;;;;;5053070;28;20180;-52
2023/12/17 10:52:54;;;;;;;2.50;1.40;;;16.00;34.60;;;;;;5052886;28;20189;-55
2023/12/17 10:55:22;;;;;;;2.55;2.13;;;16.10;35.40;;;;;;5053039;28;20453;-49
2023/12/17 10:58:02;;;;;;;3.28;2.65;;;16.20;35.60;;;;;;5052601;28;20260;-53
2023/12/17 11:00:31;;;;;;;3.38;1.40;;;16.30;35.60;;;;;;5052850;28;20650;-50
2023/12/17 11:03:06;;;;;;;3.95;1.80;;;16.30;35.50;;;;;;5052776;28;20605;-57
2023/12/17 11:05:32;;;;;;;3.85;1.05;;;16.50;35.50;;;;;;5052768;28;20586;-50
2023/12/17 11:07:58;;;;;;;1.42;1.23;;;16.70;35.50;;;;;;5052246;28;20737;-54
2023/12/17 11:10:26;;;;;;;1.67;1.47;;;16.90;34.50;;;;;;5052779;28;20558;-55
2023/12/17 11:12:53;;;;;;;1.38;1.17;;;17.00;34.70;;;;;;5052515;28;20498;-55
2023/12/17 11:15:22;;;;;;;4.03;1.85;;;16.90;35.10;;;;;;5052450;28;20185;-50
2023/12/17 11:17:54;;;;;;;1.65;1.42;;;16.90;35.20;;;;;;5052337;28;20184;-53
2023/12/17 11:20:32;;;;;;;4.00;2.15;;;16.80;34.70;;;;;;5052264;28;20259;-52
2023/12/17 11:23:01;;;;;;;8.05;1.20;;;16.70;35.30;;;;;;5052419;28;20173;-50
2023/12/17 11:25:31;;;;;;;2.00;1.38;;;16.60;33.40;;;;;;5052249;28;20662;-55
2023/12/17 11:27:57;;;;;;;2.08;1.60;;;16.50;34.90;;;;;;5052322;28;20276;-48
2023/12/17 11:30:30;;;;;;;2.30;1.27;;;16.70;34.60;;;;;;5052183;28;20211;-50
2023/12/17 11:33:00;;;;;;;3.75;1.08;;;16.90;33.40;;;;;;5034969;28;20200;-50
2023/12/17 11:35:28;;;;;;;1.30;0.95;;;16.90;32.90;;;;;;5052205;28;20174;-50
2023/12/17 11:37:54;;;;;;;2.22;1.45;;;17.10;33.70;;;;;;5051716;28;20652;-59
2023/12/17 11:40:21;;;;;;;1.40;1.10;;;17.10;33.10;;;;;;5052081;28;20177;-54
2023/12/17 11:42:58;;;;;;;2.10;1.35;;;17.10;33.10;;;;;;5051966;28;20231;-51
2023/12/17 11:45:56;;;;;;;2.08;1.38;;;17.10;33.80;;;;;;5052148;28;20181;-58
2023/12/17 11:48:22;;;;;;;2.30;1.67;;;17.20;34.10;;;;;;5018410;28;20197;-51
2023/12/17 11:50:56;;;;;;;1.83;1.45;;;17.40;34.10;;;;;;5052051;28;20177;-53
2023/12/17 11:53:27;;;;;;;2.00;1.58;;;17.50;34.30;;;;;;5052202;28;20173;-57
2023/12/17 11:56:03;;;;;;;1.65;1.25;;;17.50;34.30;;;;;;5052116;28;20173;-51
2023/12/17 11:58:29;;;;;;;2.00;1.17;;;17.50;34.00;;;;;;5051698;28;20208;-53
2023/12/17 12:01:12;;;;;;;1.57;1.03;;;17.50;34.10;;;;;;5051742;28;20201;-56
2023/12/17 12:03:42;;;;;;;3.05;1.50;;;17.50;33.10;;;;;;5051320;28;20427;-52
2023/12/17 12:06:12;;;;;;;2.33;1.20;;;17.50;34.60;;;;;;5051807;28;20181;-58
2023/12/17 12:08:45;;;;;;;4.15;1.42;;;17.50;33.60;;;;;;5051521;28;20189;-51
2023/12/17 12:11:12;;;;;;;1.30;1.00;;;17.40;32.50;;;;;;5051960;28;20177;-58
2023/12/17 12:13:42;;;;;;;2.38;1.85;;;17.40;32.50;;;;;;5051846;28;20173;-50
2023/12/17 12:16:09;;;;;;;5.85;1.48;;;17.40;32.50;;;;;;5051675;28;20188;-53
2023/12/17 12:18:35;;;;;;;1.67;1.40;;;17.50;33.80;;;;;;5051432;28;20685;-58
2023/12/17 12:21:01;;;;;;;3.87;1.80;;;17.70;33.40;;;;;;5051481;28;20201;-51
2023/12/17 12:23:27;;;;;;;3.15;1.50;;;18.00;32.00;;;;;;5051664;28;20973;-58
2023/12/17 12:26:00;;;;;;;1.90;1.58;;;18.10;31.40;;;;;;5051671;28;20204;-52
2023/12/17 12:28:28;;;;;;;2.00;1.65;;;18.50;33.10;;;;;;5051291;28;20193;-54
2023/12/17 12:30:54;;;;;;;3.15;1.65;;;18.90;31.10;;;;;;5051615;28;20181;-56
2023/12/17 12:33:20;;;;;;;1.55;1.00;;;19.40;32.00;;;;;;5051545;28;20180;-53
2023/12/17 12:35:50;;;;;;;2.23;1.73;;;20.00;32.20;;;;;;5051721;28;20700;-51
2023/12/17 12:38:26;;;;;;;3.47;1.88;;;20.40;30.20;;;;;;5051234;28;20810;-57
2023/12/17 12:40:54;;;;;;;1.70;1.20;;;21.00;28.80;;;;;;5051573;28;20200;-53
2023/12/17 12:43:21;;;;;;;1.65;1.48;;;21.30;29.30;;;;;;5051552;28;20173;-58
2023/12/17 12:45:52;;;;;;;3.35;2.05;;;21.40;27.50;;;;;;5051380;28;20185;-59
2023/12/17 12:48:23;;;;;;;1.73;1.15;;;21.30;26.40;;;;;;5051403;28;20201;-52